sensor_id;sensor_type;location;lat;lon;timestamp;temperature;humidity
7445;DHT22;3764;48.126;11.594;2022-08-14T00:00:10;19.40;99.30
7445;DHT22;3764;48.126;11.594;2022-08-14T00:02:38;19.40;99.40
7445;DHT22;3764;48.126;11.594;2022-08-14T00:05:08;19.40;99.40
7445;DHT22;3764;48.126;11.594;2022-08-14T00:07:35;19.30;99.40
7445;DHT22;3764;48.126;11.594;2022-08-14T00:10:04;19.40;99.40
7445;DHT22;3764;48.126;11.594;2022-08-14T00:12:34;19.40;99.60
7445;DHT22;3764;48.126;11.594;2022-08-14T00:15:04;19.30;99.60
7445;DHT22;3764;48.126;11.594;2022-08-14T00:17:33;19.30;99.70
7445;DHT22;3764;48.126;11.594;2022-08-14T00:20:00;19.30;99.40
7445;DHT22;3764;48.126;11.594;2022-08-14T00:22:29;19.30;99.50
7445;DHT22;3764;48.126;11.594;2022-08-14T00:24:56;19.20;99.50
7445;DHT22;3764;48.126;11.594;2022-08-14T00:27:23;19.20;99.50
7445;DHT22;3764;48.126;11.594;2022-08-14T00:29:50;19.20;99.70
7445;DHT22;3764;48.126;11.594;2022-08-14T00:32:17;19.20;99.70
7445;DHT22;3764;48.126;11.594;2022-08-14T00:34:44;19.20;99.60
7445;DHT22;3764;48.126;11.594;2022-08-14T00:37:12;19.10;99.70
7445;DHT22;3764;48.126;11.594;2022-08-14T00:39:40;19.10;99.70
7445;DHT22;3764;48.126;11.594;2022-08-14T00:42:07;19.10;99.60
7445;DHT22;3764;48.126;11.594;2022-08-14T00:44:35;19.10;99.50
7445;DHT22;3764;48.126;11.594;2022-08-14T00:47:03;19.10;99.80
7445;DHT22;3764;48.126;11.594;2022-08-14T00:49:34;19.00;99.50
7445;DHT22;3764;48.126;11.594;2022-08-14T00:52:03;19.00;99.70
7445;DHT22;3764;48.126;11.594;2022-08-14T00:54:31;19.00;99.70
7445;DHT22;3764;48.126;11.594;2022-08-14T00:57:00;19.00;99.70
7445;DHT22;3764;48.126;11.594;2022-08-14T00:59:27;19.00;99.70
7445;DHT22;3764;48.126;11.594;2022-08-14T01:01:57;18.90;99.70
7445;DHT22;3764;48.126;11.594;2022-08-14T01:04:25;18.80;99.70
7445;DHT22;3764;48.126;11.594;2022-08-14T01:06:53;18.90;99.80
7445;DHT22;3764;48.126;11.594;2022-08-14T01:09:20;18.90;99.80
7445;DHT22;3764;48.126;11.594;2022-08-14T01:11:48;18.90;99.80
7445;DHT22;3764;48.126;11.594;2022-08-14T01:14:17;18.90;99.90
7445;DHT22;3764;48.126;11.594;2022-08-14T01:16:45;18.80;99.90
7445;DHT22;3764;48.126;11.594;2022-08-14T01:19:13;18.90;99.90
7445;DHT22;3764;48.126;11.594;2022-08-14T01:21:59;18.80;99.90
7445;DHT22;3764;48.126;11.594;2022-08-14T01:24:26;18.80;99.90
7445;DHT22;3764;48.126;11.594;2022-08-14T01:26:53;18.80;99.90
7445;DHT22;3764;48.126;11.594;2022-08-14T01:29:20;18.80;99.90
7445;DHT22;3764;48.126;11.594;2022-08-14T01:31:47;18.80;99.90
7445;DHT22;3764;48.126;11.594;2022-08-14T01:34:17;18.80;99.90
7445;DHT22;3764;48.126;11.594;2022-08-14T01:36:45;18.70;99.90
7445;DHT22;3764;48.126;11.594;2022-08-14T01:39:15;18.70;99.90
7445;DHT22;3764;48.126;11.594;2022-08-14T01:41:44;18.70;99.90
7445;DHT22;3764;48.126;11.594;2022-08-14T01:44:18;18.70;99.90
7445;DHT22;3764;48.126;11.594;2022-08-14T01:46:46;18.60;99.90
7445;DHT22;3764;48.126;11.594;2022-08-14T01:49:19;18.50;99.90
7445;DHT22;3764;48.126;11.594;2022-08-14T01:51:47;18.30;99.90
7445;DHT22;3764;48.126;11.594;2022-08-14T01:54:20;18.30;99.90
7445;DHT22;3764;48.126;11.594;2022-08-14T01:56:50;18.30;99.90
7445;DHT22;3764;48.126;11.594;2022-08-14T01:59:20;18.30;99.90
7445;DHT22;3764;48.126;11.594;2022-08-14T02:01:50;18.30;99.90
7445;DHT22;3764;48.126;11.594;2022-08-14T02:04:18;18.30;99.90
7445;DHT22;3764;48.126;11.594;2022-08-14T02:06:46;18.20;99.90
7445;DHT22;3764;48.126;11.594;2022-08-14T02:09:15;18.20;99.90
7445;DHT22;3764;48.126;11.594;2022-08-14T02:11:44;18.20;99.90
7445;DHT22;3764;48.126;11.594;2022-08-14T02:14:13;18.20;99.90
7445;DHT22;3764;48.126;11.594;2022-08-14T02:16:41;18.00;99.90
7445;DHT22;3764;48.126;11.594;2022-08-14T02:19:12;18.00;99.90
7445;DHT22;3764;48.126;11.594;2022-08-14T02:21:41;18.00;99.90
7445;DHT22;3764;48.126;11.594;2022-08-14T02:24:11;18.00;99.90
7445;DHT22;3764;48.126;11.594;2022-08-14T02:26:41;17.90;99.90
7445;DHT22;3764;48.126;11.594;2022-08-14T02:29:18;17.80;99.90
7445;DHT22;3764;48.126;11.594;2022-08-14T02:31:54;17.50;99.90
7445;DHT22;3764;48.126;11.594;2022-08-14T02:34:24;17.40;99.90
7445;DHT22;3764;48.126;11.594;2022-08-14T02:36:56;17.40;99.90
7445;DHT22;3764;48.126;11.594;2022-08-14T02:39:25;17.30;99.90
7445;DHT22;3764;48.126;11.594;2022-08-14T02:41:52;17.30;99.90
7445;DHT22;3764;48.126;11.594;2022-08-14T02:44:21;17.40;99.90
7445;DHT22;3764;48.126;11.594;2022-08-14T02:46:49;17.50;99.90
7445;DHT22;3764;48.126;11.594;2022-08-14T02:49:16;17.60;99.90
7445;DHT22;3764;48.126;11.594;2022-08-14T02:51:47;17.70;99.90
7445;DHT22;3764;48.126;11.594;2022-08-14T02:54:14;17.70;99.90
7445;DHT22;3764;48.126;11.594;2022-08-14T02:56:41;17.80;99.90
7445;DHT22;3764;48.126;11.594;2022-08-14T02:59:10;17.80;99.90
7445;DHT22;3764;48.126;11.594;2022-08-14T03:01:40;17.90;99.90
7445;DHT22;3764;48.126;11.594;2022-08-14T03:04:07;17.90;99.90
7445;DHT22;3764;48.126;11.594;2022-08-14T03:06:36;17.90;99.90
7445;DHT22;3764;48.126;11.594;2022-08-14T03:09:05;17.90;99.90
7445;DHT22;3764;48.126;11.594;2022-08-14T03:11:32;17.80;99.90
7445;DHT22;3764;48.126;11.594;2022-08-14T03:13:59;17.80;99.90
7445;DHT22;3764;48.126;11.594;2022-08-14T03:16:28;17.80;99.90
7445;DHT22;3764;48.126;11.594;2022-08-14T03:19:04;17.90;99.90
7445;DHT22;3764;48.126;11.594;2022-08-14T03:21:33;17.90;99.90
7445;DHT22;3764;48.126;11.594;2022-08-14T03:24:01;17.80;99.90
7445;DHT22;3764;48.126;11.594;2022-08-14T03:26:37;17.90;99.90
7445;DHT22;3764;48.126;11.594;2022-08-14T03:29:05;17.70;99.90
7445;DHT22;3764;48.126;11.594;2022-08-14T03:31:33;17.70;99.90
7445;DHT22;3764;48.126;11.594;2022-08-14T03:34:02;17.50;99.90
7445;DHT22;3764;48.126;11.594;2022-08-14T03:36:30;17.40;99.90
7445;DHT22;3764;48.126;11.594;2022-08-14T03:38:58;17.30;99.90
7445;DHT22;3764;48.126;11.594;2022-08-14T03:41:26;17.10;99.90
7445;DHT22;3764;48.126;11.594;2022-08-14T03:43:59;16.90;99.90
7445;DHT22;3764;48.126;11.594;2022-08-14T03:46:28;16.90;99.90
7445;DHT22;3764;48.126;11.594;2022-08-14T03:48:56;16.80;99.90
7445;DHT22;3764;48.126;11.594;2022-08-14T03:51:27;16.90;99.90
7445;DHT22;3764;48.126;11.594;2022-08-14T03:53:55;16.90;99.90
7445;DHT22;3764;48.126;11.594;2022-08-14T03:56:23;17.00;99.90
7445;DHT22;3764;48.126;11.594;2022-08-14T03:58:53;17.00;99.90
7445;DHT22;3764;48.126;11.594;2022-08-14T04:01:22;17.00;99.90
7445;DHT22;3764;48.126;11.594;2022-08-14T04:03:51;16.90;99.90
7445;DHT22;3764;48.126;11.594;2022-08-14T04:06:19;17.00;99.90
7445;DHT22;3764;48.126;11.594;2022-08-14T04:08:48;16.90;99.90
7445;DHT22;3764;48.126;11.594;2022-08-14T04:11:16;16.90;99.90
7445;DHT22;3764;48.126;11.594;2022-08-14T04:13:44;16.90;99.90
7445;DHT22;3764;48.126;11.594;2022-08-14T04:16:14;17.00;99.90
7445;DHT22;3764;48.126;11.594;2022-08-14T04:18:43;16.90;99.90
7445;DHT22;3764;48.126;11.594;2022-08-14T04:21:12;17.00;99.90
7445;DHT22;3764;48.126;11.594;2022-08-14T04:23:40;17.00;99.90
7445;DHT22;3764;48.126;11.594;2022-08-14T04:26:10;17.00;99.90
7445;DHT22;3764;48.126;11.594;2022-08-14T04:28:39;16.80;99.90
7445;DHT22;3764;48.126;11.594;2022-08-14T04:31:07;16.60;99.90
7445;DHT22;3764;48.126;11.594;2022-08-14T04:33:34;16.40;99.90
7445;DHT22;3764;48.126;11.594;2022-08-14T04:36:02;16.30;99.90
7445;DHT22;3764;48.126;11.594;2022-08-14T04:38:30;16.20;99.90
7445;DHT22;3764;48.126;11.594;2022-08-14T04:41:16;16.10;99.90
7445;DHT22;3764;48.126;11.594;2022-08-14T04:44:00;16.10;99.90
7445;DHT22;3764;48.126;11.594;2022-08-14T04:46:27;16.00;99.90
7445;DHT22;3764;48.126;11.594;2022-08-14T04:48:54;16.00;99.90
7445;DHT22;3764;48.126;11.594;2022-08-14T04:51:22;16.10;99.90
7445;DHT22;3764;48.126;11.594;2022-08-14T04:53:51;16.20;99.90
7445;DHT22;3764;48.126;11.594;2022-08-14T04:56:22;16.20;99.90
7445;DHT22;3764;48.126;11.594;2022-08-14T04:58:52;16.10;99.90
7445;DHT22;3764;48.126;11.594;2022-08-14T05:01:23;16.00;99.90
7445;DHT22;3764;48.126;11.594;2022-08-14T05:03:50;16.10;99.90
7445;DHT22;3764;48.126;11.594;2022-08-14T05:06:17;16.30;99.90
7445;DHT22;3764;48.126;11.594;2022-08-14T05:08:44;16.30;99.90
7445;DHT22;3764;48.126;11.594;2022-08-14T05:11:12;16.30;99.90
7445;DHT22;3764;48.126;11.594;2022-08-14T05:13:41;16.20;99.90
7445;DHT22;3764;48.126;11.594;2022-08-14T05:16:09;16.20;99.90
7445;DHT22;3764;48.126;11.594;2022-08-14T05:18:38;16.30;99.90
7445;DHT22;3764;48.126;11.594;2022-08-14T05:21:07;16.30;99.90
7445;DHT22;3764;48.126;11.594;2022-08-14T05:23:37;16.40;99.90
7445;DHT22;3764;48.126;11.594;2022-08-14T05:26:05;16.40;99.90
7445;DHT22;3764;48.126;11.594;2022-08-14T05:28:39;16.30;99.90
7445;DHT22;3764;48.126;11.594;2022-08-14T05:31:10;16.30;99.90
7445;DHT22;3764;48.126;11.594;2022-08-14T05:33:39;16.20;99.90
7445;DHT22;3764;48.126;11.594;2022-08-14T05:36:08;16.20;99.90
7445;DHT22;3764;48.126;11.594;2022-08-14T05:38:38;16.20;99.90
7445;DHT22;3764;48.126;11.594;2022-08-14T05:41:08;16.30;99.90
7445;DHT22;3764;48.126;11.594;2022-08-14T05:43:37;16.40;99.90
7445;DHT22;3764;48.126;11.594;2022-08-14T05:46:05;16.60;99.90
7445;DHT22;3764;48.126;11.594;2022-08-14T05:48:34;16.70;99.90
7445;DHT22;3764;48.126;11.594;2022-08-14T05:51:01;16.80;99.90
7445;DHT22;3764;48.126;11.594;2022-08-14T05:53:28;16.80;99.90
7445;DHT22;3764;48.126;11.594;2022-08-14T05:55:55;16.90;99.90
7445;DHT22;3764;48.126;11.594;2022-08-14T05:58:24;16.90;99.90
7445;DHT22;3764;48.126;11.594;2022-08-14T06:00:51;16.90;99.90
7445;DHT22;3764;48.126;11.594;2022-08-14T06:03:20;17.00;99.90
7445;DHT22;3764;48.126;11.594;2022-08-14T06:05:51;17.00;99.90
7445;DHT22;3764;48.126;11.594;2022-08-14T06:08:21;17.00;99.90
7445;DHT22;3764;48.126;11.594;2022-08-14T06:10:48;17.00;99.90
7445;DHT22;3764;48.126;11.594;2022-08-14T06:13:16;17.10;99.90
7445;DHT22;3764;48.126;11.594;2022-08-14T06:15:44;17.10;99.90
7445;DHT22;3764;48.126;11.594;2022-08-14T06:18:12;17.10;99.90
7445;DHT22;3764;48.126;11.594;2022-08-14T06:20:40;17.20;99.90
7445;DHT22;3764;48.126;11.594;2022-08-14T06:23:09;17.20;99.90
7445;DHT22;3764;48.126;11.594;2022-08-14T06:25:36;17.30;99.90
7445;DHT22;3764;48.126;11.594;2022-08-14T06:28:04;17.30;99.90
7445;DHT22;3764;48.126;11.594;2022-08-14T06:30:32;17.40;99.90
7445;DHT22;3764;48.126;11.594;2022-08-14T06:33:00;17.40;99.90
7445;DHT22;3764;48.126;11.594;2022-08-14T06:35:27;17.50;99.90
7445;DHT22;3764;48.126;11.594;2022-08-14T06:37:56;17.60;99.90
7445;DHT22;3764;48.126;11.594;2022-08-14T06:40:26;17.60;99.90
7445;DHT22;3764;48.126;11.594;2022-08-14T06:42:53;17.70;99.90
7445;DHT22;3764;48.126;11.594;2022-08-14T06:45:20;17.80;99.90
7445;DHT22;3764;48.126;11.594;2022-08-14T06:47:48;17.80;99.90
7445;DHT22;3764;48.126;11.594;2022-08-14T06:50:17;17.90;99.90
7445;DHT22;3764;48.126;11.594;2022-08-14T06:52:46;18.00;99.90
7445;DHT22;3764;48.126;11.594;2022-08-14T06:55:14;18.00;99.90
7445;DHT22;3764;48.126;11.594;2022-08-14T06:57:45;18.10;99.90
7445;DHT22;3764;48.126;11.594;2022-08-14T07:00:15;18.20;99.90
7445;DHT22;3764;48.126;11.594;2022-08-14T07:02:43;18.20;99.90
7445;DHT22;3764;48.126;11.594;2022-08-14T07:05:28;18.30;99.90
7445;DHT22;3764;48.126;11.594;2022-08-14T07:08:16;18.40;99.90
7445;DHT22;3764;48.126;11.594;2022-08-14T07:10:44;18.40;99.90
7445;DHT22;3764;48.126;11.594;2022-08-14T07:13:13;18.50;99.90
7445;DHT22;3764;48.126;11.594;2022-08-14T07:15:40;18.60;99.90
7445;DHT22;3764;48.126;11.594;2022-08-14T07:18:10;18.60;99.90
7445;DHT22;3764;48.126;11.594;2022-08-14T07:20:38;18.70;99.90
7445;DHT22;3764;48.126;11.594;2022-08-14T07:23:07;18.80;99.90
7445;DHT22;3764;48.126;11.594;2022-08-14T07:25:35;18.80;99.90
7445;DHT22;3764;48.126;11.594;2022-08-14T07:28:08;18.90;99.90
7445;DHT22;3764;48.126;11.594;2022-08-14T07:30:37;18.90;99.90
7445;DHT22;3764;48.126;11.594;2022-08-14T07:33:05;19.00;99.90
7445;DHT22;3764;48.126;11.594;2022-08-14T07:35:34;19.10;99.90
7445;DHT22;3764;48.126;11.594;2022-08-14T07:38:02;19.20;99.90
7445;DHT22;3764;48.126;11.594;2022-08-14T07:40:29;19.20;99.90
7445;DHT22;3764;48.126;11.594;2022-08-14T07:42:56;19.30;99.90
7445;DHT22;3764;48.126;11.594;2022-08-14T07:45:24;19.40;99.90
7445;DHT22;3764;48.126;11.594;2022-08-14T07:47:52;19.40;99.90
7445;DHT22;3764;48.126;11.594;2022-08-14T07:50:23;19.50;99.90
7445;DHT22;3764;48.126;11.594;2022-08-14T07:52:52;19.60;99.90
7445;DHT22;3764;48.126;11.594;2022-08-14T07:55:19;19.70;99.90
7445;DHT22;3764;48.126;11.594;2022-08-14T07:57:46;19.70;99.90
7445;DHT22;3764;48.126;11.594;2022-08-14T08:00:17;19.80;99.90
7445;DHT22;3764;48.126;11.594;2022-08-14T08:02:45;19.90;99.90
7445;DHT22;3764;48.126;11.594;2022-08-14T08:05:18;20.00;99.90
7445;DHT22;3764;48.126;11.594;2022-08-14T08:07:46;20.10;99.90
7445;DHT22;3764;48.126;11.594;2022-08-14T08:10:15;20.20;99.90
7445;DHT22;3764;48.126;11.594;2022-08-14T08:12:59;20.30;99.90
7445;DHT22;3764;48.126;11.594;2022-08-14T08:15:28;20.40;99.90
7445;DHT22;3764;48.126;11.594;2022-08-14T08:17:58;20.50;99.80
7445;DHT22;3764;48.126;11.594;2022-08-14T08:20:28;20.60;99.60
7445;DHT22;3764;48.126;11.594;2022-08-14T08:22:55;20.70;99.00
7445;DHT22;3764;48.126;11.594;2022-08-14T08:25:24;20.80;98.90
7445;DHT22;3764;48.126;11.594;2022-08-14T08:27:56;20.90;98.80
7445;DHT22;3764;48.126;11.594;2022-08-14T08:30:25;21.00;98.80
7445;DHT22;3764;48.126;11.594;2022-08-14T08:32:54;21.10;98.60
7445;DHT22;3764;48.126;11.594;2022-08-14T08:35:23;21.20;98.80
7445;DHT22;3764;48.126;11.594;2022-08-14T08:37:53;21.30;98.60
7445;DHT22;3764;48.126;11.594;2022-08-14T08:40:22;21.40;98.30
7445;DHT22;3764;48.126;11.594;2022-08-14T08:42:50;21.40;98.50
7445;DHT22;3764;48.126;11.594;2022-08-14T08:45:18;21.50;98.80
7445;DHT22;3764;48.126;11.594;2022-08-14T08:47:46;21.50;98.20
7445;DHT22;3764;48.126;11.594;2022-08-14T08:50:18;21.60;97.90
7445;DHT22;3764;48.126;11.594;2022-08-14T08:52:47;21.70;97.90
7445;DHT22;3764;48.126;11.594;2022-08-14T08:55:23;21.70;98.10
7445;DHT22;3764;48.126;11.594;2022-08-14T08:57:54;21.70;98.00
7445;DHT22;3764;48.126;11.594;2022-08-14T09:00:21;21.80;97.80
7445;DHT22;3764;48.126;11.594;2022-08-14T09:02:54;21.80;97.80
7445;DHT22;3764;48.126;11.594;2022-08-14T09:05:22;21.90;97.90
7445;DHT22;3764;48.126;11.594;2022-08-14T09:07:50;21.90;97.70
7445;DHT22;3764;48.126;11.594;2022-08-14T09:10:19;22.00;97.50
7445;DHT22;3764;48.126;11.594;2022-08-14T09:12:46;22.10;97.40
7445;DHT22;3764;48.126;11.594;2022-08-14T09:15:13;22.20;97.50
7445;DHT22;3764;48.126;11.594;2022-08-14T09:17:41;22.20;97.50
7445;DHT22;3764;48.126;11.594;2022-08-14T09:20:10;22.30;97.10
7445;DHT22;3764;48.126;11.594;2022-08-14T09:22:39;22.40;97.10
7445;DHT22;3764;48.126;11.594;2022-08-14T09:25:07;22.40;97.10
7445;DHT22;3764;48.126;11.594;2022-08-14T09:27:36;22.40;97.10
7445;DHT22;3764;48.126;11.594;2022-08-14T09:30:05;22.50;96.70
7445;DHT22;3764;48.126;11.594;2022-08-14T09:32:55;22.60;96.70
7445;DHT22;3764;48.126;11.594;2022-08-14T09:35:32;22.60;96.80
7445;DHT22;3764;48.126;11.594;2022-08-14T09:38:09;22.70;96.90
7445;DHT22;3764;48.126;11.594;2022-08-14T09:40:44;22.80;97.00
7445;DHT22;3764;48.126;11.594;2022-08-14T09:43:24;22.90;96.60
7445;DHT22;3764;48.126;11.594;2022-08-14T09:45:54;23.00;96.90
7445;DHT22;3764;48.126;11.594;2022-08-14T09:48:26;23.00;96.40
7445;DHT22;3764;48.126;11.594;2022-08-14T09:50:55;23.10;96.30
7445;DHT22;3764;48.126;11.594;2022-08-14T09:53:35;23.20;96.30
7445;DHT22;3764;48.126;11.594;2022-08-14T09:56:04;23.20;96.20
7445;DHT22;3764;48.126;11.594;2022-08-14T09:58:38;23.20;96.50
7445;DHT22;3764;48.126;11.594;2022-08-14T10:01:10;23.30;96.40
7445;DHT22;3764;48.126;11.594;2022-08-14T10:03:46;23.30;96.30
7445;DHT22;3764;48.126;11.594;2022-08-14T10:06:16;23.30;96.10
7445;DHT22;3764;48.126;11.594;2022-08-14T10:08:45;23.40;96.00
7445;DHT22;3764;48.126;11.594;2022-08-14T10:11:15;23.40;95.70
7445;DHT22;3764;48.126;11.594;2022-08-14T10:13:46;23.50;95.80
7445;DHT22;3764;48.126;11.594;2022-08-14T10:16:17;23.50;95.60
7445;DHT22;3764;48.126;11.594;2022-08-14T10:18:48;23.50;95.70
7445;DHT22;3764;48.126;11.594;2022-08-14T10:21:17;23.70;94.60
7445;DHT22;3764;48.126;11.594;2022-08-14T10:23:46;23.70;94.90
7445;DHT22;3764;48.126;11.594;2022-08-14T10:26:19;23.70;94.70
7445;DHT22;3764;48.126;11.594;2022-08-14T10:28:50;23.80;94.00
7445;DHT22;3764;48.126;11.594;2022-08-14T10:31:19;23.90;94.50
7445;DHT22;3764;48.126;11.594;2022-08-14T10:34:01;24.00;94.20
7445;DHT22;3764;48.126;11.594;2022-08-14T10:36:31;24.00;94.80
7445;DHT22;3764;48.126;11.594;2022-08-14T10:39:00;24.10;94.40
7445;DHT22;3764;48.126;11.594;2022-08-14T10:41:39;24.10;94.30
7445;DHT22;3764;48.126;11.594;2022-08-14T10:44:10;24.10;94.10
7445;DHT22;3764;48.126;11.594;2022-08-14T10:46:40;24.20;94.00
7445;DHT22;3764;48.126;11.594;2022-08-14T10:49:16;24.20;93.10
7445;DHT22;3764;48.126;11.594;2022-08-14T10:51:57;24.40;92.90
7445;DHT22;3764;48.126;11.594;2022-08-14T10:54:33;24.40;93.10
7445;DHT22;3764;48.126;11.594;2022-08-14T10:57:16;24.50;93.20
7445;DHT22;3764;48.126;11.594;2022-08-14T10:59:51;24.50;93.00
7445;DHT22;3764;48.126;11.594;2022-08-14T11:02:23;24.60;92.90
7445;DHT22;3764;48.126;11.594;2022-08-14T11:04:58;24.60;93.20
7445;DHT22;3764;48.126;11.594;2022-08-14T11:07:26;24.60;93.20
7445;DHT22;3764;48.126;11.594;2022-08-14T11:09:55;24.60;92.60
7445;DHT22;3764;48.126;11.594;2022-08-14T11:12:23;24.60;92.20
7445;DHT22;3764;48.126;11.594;2022-08-14T11:14:57;24.70;92.10
7445;DHT22;3764;48.126;11.594;2022-08-14T11:17:25;24.70;92.10
7445;DHT22;3764;48.126;11.594;2022-08-14T11:19:57;24.80;92.40
7445;DHT22;3764;48.126;11.594;2022-08-14T11:22:27;24.80;92.30
7445;DHT22;3764;48.126;11.594;2022-08-14T11:25:01;24.80;92.30
7445;DHT22;3764;48.126;11.594;2022-08-14T11:27:30;24.90;92.10
7445;DHT22;3764;48.126;11.594;2022-08-14T11:30:02;24.90;92.00
7445;DHT22;3764;48.126;11.594;2022-08-14T11:32:31;25.00;92.00
7445;DHT22;3764;48.126;11.594;2022-08-14T11:34:58;25.00;92.30
7445;DHT22;3764;48.126;11.594;2022-08-14T11:37:26;25.00;91.90
7445;DHT22;3764;48.126;11.594;2022-08-14T11:39:58;25.10;92.00
7445;DHT22;3764;48.126;11.594;2022-08-14T11:42:27;25.10;92.10
7445;DHT22;3764;48.126;11.594;2022-08-14T11:44:57;25.20;91.90
7445;DHT22;3764;48.126;11.594;2022-08-14T11:47:26;25.20;91.60
7445;DHT22;3764;48.126;11.594;2022-08-14T11:49:54;25.30;91.80
7445;DHT22;3764;48.126;11.594;2022-08-14T11:52:21;25.40;91.60
7445;DHT22;3764;48.126;11.594;2022-08-14T11:54:59;25.40;91.60
7445;DHT22;3764;48.126;11.594;2022-08-14T11:57:26;25.40;91.30
7445;DHT22;3764;48.126;11.594;2022-08-14T12:00:02;25.40;91.00
7445;DHT22;3764;48.126;11.594;2022-08-14T12:02:31;25.50;91.30
7445;DHT22;3764;48.126;11.594;2022-08-14T12:04:59;25.50;91.50
7445;DHT22;3764;48.126;11.594;2022-08-14T12:07:26;25.50;89.70
7445;DHT22;3764;48.126;11.594;2022-08-14T12:09:55;25.60;90.50
7445;DHT22;3764;48.126;11.594;2022-08-14T12:12:24;25.60;90.70
7445;DHT22;3764;48.126;11.594;2022-08-14T12:14:54;25.60;93.00
7445;DHT22;3764;48.126;11.594;2022-08-14T12:17:22;25.60;91.00
7445;DHT22;3764;48.126;11.594;2022-08-14T12:19:53;25.60;90.10
7445;DHT22;3764;48.126;11.594;2022-08-14T12:22:32;25.70;90.10
7445;DHT22;3764;48.126;11.594;2022-08-14T12:25:00;25.70;90.20
7445;DHT22;3764;48.126;11.594;2022-08-14T12:30:07;25.80;89.10
7445;DHT22;3764;48.126;11.594;2022-08-14T12:32:39;25.80;88.10
7445;DHT22;3764;48.126;11.594;2022-08-14T12:35:09;25.90;88.10
7445;DHT22;3764;48.126;11.594;2022-08-14T12:37:36;26.00;88.00
7445;DHT22;3764;48.126;11.594;2022-08-14T12:40:12;26.00;88.80
7445;DHT22;3764;48.126;11.594;2022-08-14T12:42:39;26.00;89.00
7445;DHT22;3764;48.126;11.594;2022-08-14T12:45:08;26.00;88.00
7445;DHT22;3764;48.126;11.594;2022-08-14T12:47:38;26.10;89.00
7445;DHT22;3764;48.126;11.594;2022-08-14T12:50:09;26.10;89.60
7445;DHT22;3764;48.126;11.594;2022-08-14T12:52:38;26.10;86.50
7445;DHT22;3764;48.126;11.594;2022-08-14T12:55:08;26.20;85.00
7445;DHT22;3764;48.126;11.594;2022-08-14T12:57:37;26.20;85.20
7445;DHT22;3764;48.126;11.594;2022-08-14T13:00:09;26.20;88.60
7445;DHT22;3764;48.126;11.594;2022-08-14T13:02:38;26.20;86.30
7445;DHT22;3764;48.126;11.594;2022-08-14T13:05:09;26.30;86.50
7445;DHT22;3764;48.126;11.594;2022-08-14T13:07:37;26.30;85.90
7445;DHT22;3764;48.126;11.594;2022-08-14T13:10:07;26.40;83.90
7445;DHT22;3764;48.126;11.594;2022-08-14T13:12:36;26.50;84.30
7445;DHT22;3764;48.126;11.594;2022-08-14T13:15:06;26.60;81.20
7445;DHT22;3764;48.126;11.594;2022-08-14T13:17:39;26.60;82.30
7445;DHT22;3764;48.126;11.594;2022-08-14T13:20:09;26.60;82.10
7445;DHT22;3764;48.126;11.594;2022-08-14T13:22:38;26.60;82.60
7445;DHT22;3764;48.126;11.594;2022-08-14T13:25:09;26.50;83.00
7445;DHT22;3764;48.126;11.594;2022-08-14T13:27:37;26.50;83.30
7445;DHT22;3764;48.126;11.594;2022-08-14T13:30:06;26.50;83.20
7445;DHT22;3764;48.126;11.594;2022-08-14T13:32:34;26.50;83.90
7445;DHT22;3764;48.126;11.594;2022-08-14T13:35:05;26.40;83.60
7445;DHT22;3764;48.126;11.594;2022-08-14T13:37:34;26.40;82.50
7445;DHT22;3764;48.126;11.594;2022-08-14T13:40:03;26.40;83.70
7445;DHT22;3764;48.126;11.594;2022-08-14T13:42:32;26.40;83.60
7445;DHT22;3764;48.126;11.594;2022-08-14T13:45:01;26.50;83.70
7445;DHT22;3764;48.126;11.594;2022-08-14T13:47:29;26.50;83.80
7445;DHT22;3764;48.126;11.594;2022-08-14T13:50:00;26.50;83.50
7445;DHT22;3764;48.126;11.594;2022-08-14T13:52:32;26.60;82.30
7445;DHT22;3764;48.126;11.594;2022-08-14T13:55:03;26.60;82.30
7445;DHT22;3764;48.126;11.594;2022-08-14T13:57:31;26.60;83.00
7445;DHT22;3764;48.126;11.594;2022-08-14T14:00:06;26.60;83.90
7445;DHT22;3764;48.126;11.594;2022-08-14T14:02:37;26.70;81.80
7445;DHT22;3764;48.126;11.594;2022-08-14T14:05:05;26.80;81.60
7445;DHT22;3764;48.126;11.594;2022-08-14T14:07:34;26.80;80.10
7445;DHT22;3764;48.126;11.594;2022-08-14T14:10:06;26.90;83.70
7445;DHT22;3764;48.126;11.594;2022-08-14T14:12:35;26.90;86.40
7445;DHT22;3764;48.126;11.594;2022-08-14T14:15:04;27.00;86.70
7445;DHT22;3764;48.126;11.594;2022-08-14T14:17:34;27.00;86.70
7445;DHT22;3764;48.126;11.594;2022-08-14T14:20:02;27.00;87.90
7445;DHT22;3764;48.126;11.594;2022-08-14T14:22:30;27.00;89.00
7445;DHT22;3764;48.126;11.594;2022-08-14T14:24:58;26.90;90.00
7445;DHT22;3764;48.126;11.594;2022-08-14T14:27:27;26.90;90.40
7445;DHT22;3764;48.126;11.594;2022-08-14T14:29:57;26.90;90.10
7445;DHT22;3764;48.126;11.594;2022-08-14T14:32:28;26.90;90.70
7445;DHT22;3764;48.126;11.594;2022-08-14T14:34:58;26.90;90.00
7445;DHT22;3764;48.126;11.594;2022-08-14T14:37:28;27.00;90.80
7445;DHT22;3764;48.126;11.594;2022-08-14T14:39:56;27.00;90.00
7445;DHT22;3764;48.126;11.594;2022-08-14T14:42:27;27.00;90.40
7445;DHT22;3764;48.126;11.594;2022-08-14T14:44:58;27.00;90.40
7445;DHT22;3764;48.126;11.594;2022-08-14T14:47:29;27.00;90.00
7445;DHT22;3764;48.126;11.594;2022-08-14T14:50:00;27.00;90.00
7445;DHT22;3764;48.126;11.594;2022-08-14T14:52:28;27.00;90.20
7445;DHT22;3764;48.126;11.594;2022-08-14T14:54:58;27.00;91.10
7445;DHT22;3764;48.126;11.594;2022-08-14T14:57:27;27.00;89.10
7445;DHT22;3764;48.126;11.594;2022-08-14T14:59:55;27.10;90.20
7445;DHT22;3764;48.126;11.594;2022-08-14T15:02:31;27.00;91.40
7445;DHT22;3764;48.126;11.594;2022-08-14T15:04:59;27.00;91.60
7445;DHT22;3764;48.126;11.594;2022-08-14T15:07:27;27.10;91.40
7445;DHT22;3764;48.126;11.594;2022-08-14T15:09:54;27.20;90.50
7445;DHT22;3764;48.126;11.594;2022-08-14T15:12:21;27.10;90.60
7445;DHT22;3764;48.126;11.594;2022-08-14T15:14:49;27.20;91.30
7445;DHT22;3764;48.126;11.594;2022-08-14T15:17:17;27.30;91.80
7445;DHT22;3764;48.126;11.594;2022-08-14T15:19:45;27.40;92.20
7445;DHT22;3764;48.126;11.594;2022-08-14T15:22:13;27.50;90.60
7445;DHT22;3764;48.126;11.594;2022-08-14T15:24:40;27.70;92.00
7445;DHT22;3764;48.126;11.594;2022-08-14T15:27:07;27.90;90.60
7445;DHT22;3764;48.126;11.594;2022-08-14T15:29:35;28.10;91.00
7445;DHT22;3764;48.126;11.594;2022-08-14T15:32:05;28.20;91.10
7445;DHT22;3764;48.126;11.594;2022-08-14T15:34:33;28.40;90.10
7445;DHT22;3764;48.126;11.594;2022-08-14T15:37:02;28.60;90.60
7445;DHT22;3764;48.126;11.594;2022-08-14T15:39:29;28.70;90.40
7445;DHT22;3764;48.126;11.594;2022-08-14T15:41:56;28.90;91.00
7445;DHT22;3764;48.126;11.594;2022-08-14T15:44:27;29.00;90.60
7445;DHT22;3764;48.126;11.594;2022-08-14T15:46:55;29.10;90.10
7445;DHT22;3764;48.126;11.594;2022-08-14T15:49:24;29.20;88.30
7445;DHT22;3764;48.126;11.594;2022-08-14T15:51:53;29.10;89.70
7445;DHT22;3764;48.126;11.594;2022-08-14T15:54:23;29.20;88.70
7445;DHT22;3764;48.126;11.594;2022-08-14T15:56:58;29.20;89.70
7445;DHT22;3764;48.126;11.594;2022-08-14T15:59:26;29.20;89.90
7445;DHT22;3764;48.126;11.594;2022-08-14T16:02:13;29.20;89.60